createdAt,value
2023-04-14T00:00:15.738Z,5.75
2023-04-14T00:02:49.144Z,5.71
2023-04-14T00:05:19.311Z,5.64
2023-04-14T00:07:47.736Z,5.65
2023-04-14T00:10:16.206Z,5.73
2023-04-14T00:12:44.600Z,5.83
2023-04-14T00:15:13.107Z,5.91
2023-04-14T00:17:41.541Z,5.92
2023-04-14T00:20:10.895Z,5.91
2023-04-14T00:22:40.620Z,5.95
2023-04-14T00:25:09.770Z,6.04
2023-04-14T00:27:38.161Z,6.09
2023-04-14T00:30:07.961Z,6.08
2023-04-14T00:32:36.550Z,6.02
2023-04-14T00:35:05.290Z,5.95
2023-04-14T00:37:33.820Z,5.95
2023-04-14T00:40:03.783Z,5.88
2023-04-14T00:42:43.076Z,5.85
2023-04-14T00:45:12.609Z,5.89
2023-04-14T00:47:49.245Z,5.98
2023-04-14T00:50:19.591Z,6.05
2023-04-14T00:52:51.261Z,6.04
2023-04-14T00:55:21.886Z,6.04
2023-04-14T00:57:51.162Z,6.01
2023-04-14T01:00:20.211Z,6.06
2023-04-14T01:02:48.622Z,6.07
2023-04-14T01:05:17.383Z,5.91
2023-04-14T01:07:48.405Z,5.79
2023-04-14T01:10:17.287Z,5.57
2023-04-14T01:13:13.141Z,5.47
2023-04-14T01:15:48.465Z,5.44
2023-04-14T01:18:22.447Z,5.37
2023-04-14T01:20:53.760Z,5.31
2023-04-14T01:23:28.857Z,5.36
2023-04-14T01:26:19.585Z,5.39
2023-04-14T01:29:38.340Z,5.50
2023-04-14T01:32:10.615Z,5.51
2023-04-14T01:34:45.878Z,5.53
2023-04-14T01:37:16.825Z,5.53
2023-04-14T01:39:51.030Z,5.53
2023-04-14T01:42:28.836Z,5.56
2023-04-14T01:45:00.671Z,5.56
2023-04-14T01:47:32.390Z,5.58
2023-04-14T01:50:02.244Z,5.61
2023-04-14T01:52:32.563Z,5.58
2023-04-14T01:55:05.795Z,5.57
2023-04-14T01:57:35.734Z,5.51
2023-04-14T02:00:05.501Z,5.48
2023-04-14T02:02:37.850Z,5.48
2023-04-14T02:05:09.956Z,5.46
2023-04-14T02:07:39.983Z,5.41
2023-04-14T02:10:11.428Z,5.31
2023-04-14T02:12:52.194Z,5.24
2023-04-14T02:15:30.978Z,5.15
2023-04-14T02:18:01.956Z,5.07
2023-04-14T02:20:30.793Z,4.91
2023-04-14T02:22:59.460Z,4.84
2023-04-14T02:25:33.576Z,4.80
2023-04-14T02:28:06.477Z,4.73
2023-04-14T02:30:39.632Z,4.73
2023-04-14T02:33:13.158Z,4.69
2023-04-14T02:35:45.864Z,4.66
2023-04-14T02:38:20.477Z,4.73
2023-04-14T02:40:49.533Z,4.76
2023-04-14T02:43:21.633Z,4.78
2023-04-14T02:45:53.830Z,4.77
2023-04-14T02:48:29.210Z,4.78
2023-04-14T02:51:00.134Z,4.79
2023-04-14T02:53:31.073Z,4.75
2023-04-14T02:56:00.318Z,4.73
2023-04-14T02:58:30.275Z,4.73
2023-04-14T03:00:59.207Z,4.71
2023-04-14T03:03:31.347Z,4.62
2023-04-14T03:06:00.270Z,4.58
2023-04-14T03:08:30.156Z,4.51
2023-04-14T03:11:00.013Z,4.49
2023-04-14T03:13:32.159Z,4.40
2023-04-14T03:16:00.876Z,4.42
2023-04-14T03:18:32.115Z,4.38
2023-04-14T03:21:02.586Z,4.38
2023-04-14T03:23:32.281Z,4.41
2023-04-14T03:26:03.333Z,4.44
2023-04-14T03:28:37.031Z,4.45
2023-04-14T03:31:07.305Z,4.45
2023-04-14T03:33:38.700Z,4.46
2023-04-14T03:36:09.071Z,4.54
2023-04-14T03:38:38.041Z,4.56
2023-04-14T03:41:09.677Z,4.49
2023-04-14T03:43:39.282Z,4.49
2023-04-14T03:46:07.799Z,4.53
2023-04-14T03:48:42.638Z,4.62
2023-04-14T03:51:15.079Z,4.65
2023-04-14T03:53:46.412Z,4.64
2023-04-14T03:56:16.626Z,4.57
2023-04-14T03:58:49.402Z,4.56
2023-04-14T04:01:19.470Z,4.47
2023-04-14T04:03:49.852Z,4.44
2023-04-14T04:06:18.670Z,4.46
2023-04-14T04:08:50.631Z,4.50
2023-04-14T04:11:20.856Z,4.49
2023-04-14T04:13:50.233Z,4.43
2023-04-14T04:16:19.791Z,4.38
2023-04-14T04:18:51.324Z,4.39
2023-04-14T04:21:21.415Z,4.48
2023-04-14T04:23:53.308Z,4.56
2023-04-14T04:26:23.521Z,4.59
2023-04-14T04:28:52.530Z,4.63
2023-04-14T04:31:23.241Z,4.64
2023-04-14T04:34:03.107Z,4.71
2023-04-14T04:36:32.986Z,4.76
2023-04-14T04:39:01.633Z,4.74
2023-04-14T04:41:31.820Z,4.66
2023-04-14T04:44:00.285Z,4.63
2023-04-14T04:46:46.152Z,4.58
2023-04-14T04:49:15.895Z,4.60
2023-04-14T04:51:44.382Z,4.62
2023-04-14T04:54:12.867Z,4.66
2023-04-14T04:56:41.215Z,4.70
2023-04-14T04:59:09.939Z,4.75
2023-04-14T05:01:38.462Z,4.78
2023-04-14T05:04:07.340Z,4.78
2023-04-14T05:06:38.218Z,4.83
2023-04-14T05:09:06.974Z,4.85
2023-04-14T05:11:36.190Z,4.84
2023-04-14T05:14:04.822Z,4.81
2023-04-14T05:16:33.539Z,4.74
2023-04-14T05:19:03.041Z,4.74
2023-04-14T05:21:31.757Z,4.72
2023-04-14T05:24:01.683Z,4.63
2023-04-14T05:26:52.064Z,4.59
2023-04-14T05:29:19.591Z,4.59
2023-04-14T05:31:48.399Z,4.61
2023-04-14T05:34:16.848Z,4.65
2023-04-14T05:36:45.459Z,4.69
2023-04-14T05:39:15.160Z,4.72
2023-04-14T05:41:43.597Z,4.73
2023-04-14T05:44:11.979Z,4.76
2023-04-14T05:46:41.278Z,4.71
2023-04-14T05:49:09.744Z,4.75
2023-04-14T05:51:41.492Z,4.65
2023-04-14T05:54:09.888Z,4.62
2023-04-14T05:56:40.252Z,4.61
2023-04-14T05:59:09.040Z,4.60
2023-04-14T06:01:37.450Z,4.58
2023-04-14T06:04:06.249Z,4.58
2023-04-14T06:06:35.193Z,4.52
2023-04-14T06:09:03.660Z,4.51
2023-04-14T06:11:34.287Z,4.53
2023-04-14T06:14:05.464Z,4.51
2023-04-14T06:16:34.696Z,4.49
2023-04-14T06:19:03.733Z,4.40
2023-04-14T06:21:34.011Z,4.37
2023-04-14T06:24:02.377Z,4.32
2023-04-14T06:26:34.481Z,4.30
2023-04-14T06:29:07.469Z,4.29
2023-04-14T06:31:36.035Z,4.32
2023-04-14T06:34:04.454Z,4.27
2023-04-14T06:36:34.754Z,4.20
2023-04-14T06:39:03.439Z,4.17
2023-04-14T06:41:34.955Z,4.11
2023-04-14T06:44:04.817Z,4.08
2023-04-14T06:46:36.058Z,4.06
2023-04-14T06:49:04.847Z,4.08
2023-04-14T06:51:36.727Z,4.05
2023-04-14T06:54:05.373Z,4.06
2023-04-14T06:56:33.801Z,4.09
2023-04-14T06:59:02.473Z,4.09
2023-04-14T07:01:33.178Z,4.11
2023-04-14T07:04:07.479Z,4.16
2023-04-14T07:06:36.453Z,4.14
2023-04-14T07:09:05.030Z,4.20
2023-04-14T07:11:34.275Z,4.28
2023-04-14T07:14:03.087Z,4.30
2023-04-14T07:16:33.592Z,4.32
2023-04-14T07:19:04.360Z,4.34
2023-04-14T07:21:33.977Z,4.31
2023-04-14T07:24:02.617Z,4.33
2023-04-14T07:26:31.579Z,4.28
2023-04-14T07:29:00.030Z,4.30
2023-04-14T07:31:29.264Z,4.29
2023-04-14T07:33:59.292Z,4.29
2023-04-14T07:36:28.070Z,4.36
2023-04-14T07:38:56.466Z,4.42
2023-04-14T07:41:25.655Z,4.48
2023-04-14T07:43:55.753Z,4.54
2023-04-14T07:46:24.255Z,4.59
2023-04-14T07:48:52.702Z,4.69
2023-04-14T07:51:22.752Z,4.79
2023-04-14T07:53:53.097Z,4.81
2023-04-14T07:56:22.390Z,4.81
2023-04-14T07:58:50.887Z,4.74
2023-04-14T08:01:19.368Z,4.77
2023-04-14T08:03:48.081Z,4.82
2023-04-14T08:06:16.912Z,4.82
2023-04-14T08:08:46.649Z,4.85
2023-04-14T08:11:15.069Z,4.85
2023-04-14T08:13:44.400Z,4.85
2023-04-14T08:16:12.932Z,4.85
2023-04-14T08:18:41.542Z,4.81
2023-04-14T08:21:10.029Z,4.76
2023-04-14T08:23:38.412Z,4.69
2023-04-14T08:26:08.163Z,4.67
2023-04-14T08:28:37.262Z,4.60
2023-04-14T08:31:05.810Z,4.62
2023-04-14T08:33:34.900Z,4.66
2023-04-14T08:36:03.321Z,4.71
2023-04-14T08:38:32.853Z,4.72
2023-04-14T08:41:03.743Z,4.72
2023-04-14T08:43:36.551Z,4.70
2023-04-14T08:46:06.127Z,4.71
2023-04-14T08:48:37.756Z,4.76
2023-04-14T08:51:11.361Z,4.73
2023-04-14T08:53:45.184Z,4.72
2023-04-14T08:56:16.339Z,4.74
2023-04-14T08:58:47.325Z,4.80
2023-04-14T09:01:16.775Z,4.88
2023-04-14T09:03:46.118Z,4.93
2023-04-14T09:06:15.341Z,5.00
2023-04-14T09:08:44.550Z,5.01
2023-04-14T09:11:16.810Z,5.02
2023-04-14T09:13:50.180Z,5.04
2023-04-14T09:16:22.454Z,5.10
2023-04-14T09:18:51.121Z,5.13
2023-04-14T09:21:30.432Z,5.12
2023-04-14T09:24:11.060Z,5.10
2023-04-14T09:26:40.584Z,5.18
2023-04-14T09:29:10.414Z,5.27
2023-04-14T09:31:39.052Z,5.33
2023-04-14T09:34:16.715Z,5.46
2023-04-14T09:37:01.057Z,5.51
2023-04-14T09:39:29.737Z,5.47
2023-04-14T09:41:58.280Z,5.49
2023-04-14T09:44:28.477Z,5.49
2023-04-14T09:47:01.044Z,5.49
2023-04-14T09:49:30.326Z,5.42
2023-04-14T09:52:05.257Z,5.36
2023-04-14T09:54:35.964Z,5.37
2023-04-14T09:57:04.645Z,5.35
2023-04-14T09:59:36.860Z,5.31
2023-04-14T10:02:07.911Z,5.33
2023-04-14T10:04:37.432Z,5.27
2023-04-14T10:07:08.539Z,5.23
2023-04-14T10:09:38.526Z,5.21
2023-04-14T10:12:12.166Z,5.21
2023-04-14T10:14:42.736Z,5.32
2023-04-14T10:17:11.867Z,5.39
2023-04-14T10:19:40.761Z,5.37
2023-04-14T10:22:09.315Z,5.41
2023-04-14T10:24:38.182Z,5.41
2023-04-14T10:27:07.342Z,5.39
2023-04-14T10:29:36.073Z,5.37
2023-04-14T10:32:08.955Z,5.36
2023-04-14T10:34:42.038Z,5.32
2023-04-14T10:37:15.107Z,5.25
2023-04-14T10:39:43.828Z,5.21
2023-04-14T10:42:12.377Z,5.21
2023-04-14T10:44:40.807Z,5.20
2023-04-14T10:47:10.866Z,5.20
2023-04-14T10:49:41.324Z,5.26
2023-04-14T10:52:33.783Z,5.30
2023-04-14T10:55:08.932Z,5.31
2023-04-14T10:57:41.259Z,5.38
2023-04-14T11:00:26.251Z,5.44
2023-04-14T11:03:03.821Z,5.51
2023-04-14T11:05:34.548Z,5.64
2023-04-14T11:08:13.925Z,5.75
2023-04-14T11:10:48.158Z,5.78
2023-04-14T11:13:17.740Z,5.89
2023-04-14T11:15:57.837Z,5.99
2023-04-14T11:18:44.136Z,6.07
2023-04-14T11:21:16.843Z,6.13
2023-04-14T11:23:45.596Z,6.13
2023-04-14T11:26:14.688Z,6.11
2023-04-14T11:28:44.514Z,6.08
2023-04-14T11:31:15.549Z,6.07
2023-04-14T11:33:46.294Z,6.07
2023-04-14T11:36:14.742Z,6.08
2023-04-14T11:38:44.009Z,6.14
2023-04-14T11:41:16.312Z,6.22
2023-04-14T11:43:49.049Z,6.32
2023-04-14T11:46:20.691Z,6.37
2023-04-14T11:48:55.500Z,6.39
2023-04-14T11:51:30.679Z,6.44
2023-04-14T11:54:00.967Z,6.58
2023-04-14T11:56:31.355Z,6.70
2023-04-14T11:59:03.413Z,6.84
2023-04-14T12:01:32.626Z,7.01
2023-04-14T12:04:02.912Z,7.09
2023-04-14T12:06:38.732Z,7.12
2023-04-14T12:09:10.335Z,7.18
2023-04-14T12:11:38.963Z,7.30
2023-04-14T12:14:07.518Z,7.42
2023-04-14T12:16:36.935Z,7.52
2023-04-14T12:19:06.798Z,7.57
2023-04-14T12:21:35.260Z,7.59
2023-04-14T12:24:03.816Z,7.60
2023-04-14T12:26:32.657Z,7.58
2023-04-14T12:29:02.106Z,7.59
2023-04-14T12:31:31.243Z,7.61
2023-04-14T12:34:04.169Z,7.56
2023-04-14T12:36:49.485Z,7.54
2023-04-14T12:39:18.439Z,7.54
2023-04-14T12:41:47.182Z,7.54
2023-04-14T12:44:20.524Z,7.54
2023-04-14T12:46:52.977Z,7.54
2023-04-14T12:49:35.011Z,7.62
2023-04-14T12:52:05.806Z,7.70
2023-04-14T12:54:48.106Z,7.83
2023-04-14T12:57:16.516Z,7.87
2023-04-14T12:59:45.726Z,7.87
2023-04-14T13:02:14.333Z,7.88
2023-04-14T13:04:43.390Z,7.86
2023-04-14T13:07:13.195Z,7.86
2023-04-14T13:09:42.516Z,7.88
2023-04-14T13:12:10.951Z,7.94
2023-04-14T13:14:39.628Z,8.04
2023-04-14T13:17:10.469Z,8.15
2023-04-14T13:19:40.338Z,8.20
2023-04-14T13:22:08.719Z,8.26
2023-04-14T13:24:41.475Z,8.32
2023-04-14T13:27:10.016Z,8.33
2023-04-14T13:29:41.159Z,8.33
2023-04-14T13:32:11.469Z,8.35
2023-04-14T13:34:40.927Z,8.35
2023-04-14T13:37:09.340Z,8.32
2023-04-14T13:39:40.290Z,8.31
2023-04-14T13:42:08.751Z,8.20
2023-04-14T13:44:39.208Z,8.02
2023-04-14T13:47:07.762Z,7.85
2023-04-14T13:49:39.964Z,7.74
2023-04-14T13:52:09.469Z,7.71
2023-04-14T13:54:41.933Z,7.74
2023-04-14T13:57:10.601Z,7.84
2023-04-14T13:59:40.464Z,7.92
2023-04-14T14:02:09.044Z,8.08
2023-04-14T14:04:40.649Z,8.14
2023-04-14T14:07:09.201Z,8.21
2023-04-14T14:09:40.073Z,8.31
2023-04-14T14:12:12.672Z,8.43
2023-04-14T14:14:41.359Z,8.49
2023-04-14T14:17:10.206Z,8.50
2023-04-14T14:19:39.972Z,8.53
2023-04-14T14:22:08.519Z,8.67
2023-04-14T14:24:37.276Z,8.78
2023-04-14T14:27:07.205Z,8.88
2023-04-14T14:29:37.471Z,8.93
2023-04-14T14:32:06.513Z,9.01
2023-04-14T14:34:34.948Z,9.10
2023-04-14T14:37:03.347Z,9.19
2023-04-14T14:39:32.665Z,9.19
2023-04-14T14:42:01.265Z,9.20
2023-04-14T14:44:31.319Z,9.19
2023-04-14T14:46:59.870Z,9.16
2023-04-14T14:49:28.383Z,9.06
2023-04-14T14:51:57.107Z,8.89
2023-04-14T14:54:25.557Z,8.69
2023-04-14T14:56:53.889Z,8.50
2023-04-14T14:59:22.324Z,8.33
2023-04-14T15:01:52.111Z,8.13
2023-04-14T15:04:20.627Z,7.85
2023-04-14T15:06:49.134Z,7.61
2023-04-14T15:09:17.480Z,7.55
2023-04-14T15:11:47.168Z,7.55
2023-04-14T15:14:15.595Z,7.53
2023-04-14T15:16:44.048Z,7.56
2023-04-14T15:19:15.477Z,7.57
2023-04-14T15:21:44.271Z,7.53
2023-04-14T15:24:12.939Z,7.51
2023-04-14T15:26:41.311Z,7.49
2023-04-14T15:29:09.953Z,7.51
2023-04-14T15:31:39.925Z,7.58
2023-04-14T15:34:08.380Z,7.69
2023-04-14T15:36:38.318Z,7.72
2023-04-14T15:39:07.123Z,7.75
2023-04-14T15:41:36.360Z,7.78
2023-04-14T15:44:04.929Z,7.77
2023-04-14T15:46:33.253Z,7.76
2023-04-14T15:49:01.564Z,7.76
2023-04-14T15:51:30.047Z,7.69
2023-04-14T15:54:00.154Z,7.59
2023-04-14T15:56:29.869Z,7.51
2023-04-14T15:58:58.501Z,7.44
2023-04-14T16:01:26.937Z,7.41
2023-04-14T16:03:55.697Z,7.36
2023-04-14T16:06:24.354Z,7.29
2023-04-14T16:08:53.389Z,7.26
2023-04-14T16:11:24.015Z,7.29
2023-04-14T16:13:53.353Z,7.32
2023-04-14T16:16:22.068Z,7.29
2023-04-14T16:18:50.826Z,7.24
2023-04-14T16:21:19.278Z,7.26
2023-04-14T16:23:47.618Z,7.25
2023-04-14T16:26:17.273Z,7.26
2023-04-14T16:28:47.093Z,7.26
2023-04-14T16:31:16.109Z,7.26
2023-04-14T16:33:44.572Z,7.23
2023-04-14T16:36:12.920Z,7.19
2023-04-14T16:38:41.489Z,7.19
2023-04-14T16:41:10.097Z,7.20
2023-04-14T16:43:38.810Z,7.19
2023-04-14T16:46:08.893Z,7.18
2023-04-14T16:48:40.531Z,7.22
2023-04-14T16:51:10.863Z,7.26
2023-04-14T16:53:41.178Z,7.26
2023-04-14T16:56:11.324Z,7.24
2023-04-14T16:58:40.263Z,7.24
2023-04-14T17:01:10.276Z,7.25
2023-04-14T17:03:39.305Z,7.29
2023-04-14T17:06:07.999Z,7.25
2023-04-14T17:08:36.457Z,7.18
2023-04-14T17:11:04.940Z,7.15
2023-04-14T17:13:33.444Z,7.10
2023-04-14T17:16:09.010Z,7.08
2023-04-14T17:18:41.504Z,7.07
2023-04-14T17:21:09.960Z,7.03
2023-04-14T17:23:39.207Z,7.00
2023-04-14T17:26:07.872Z,6.98
2023-04-14T17:28:36.276Z,6.96
2023-04-14T17:31:11.342Z,6.96
2023-04-14T17:33:43.004Z,7.00
2023-04-14T17:36:16.575Z,7.02
2023-04-14T17:38:45.898Z,7.04
2023-04-14T17:41:14.839Z,7.03
2023-04-14T17:43:43.720Z,7.02
2023-04-14T17:46:12.197Z,7.01
2023-04-14T17:48:43.477Z,7.02
2023-04-14T17:51:12.600Z,7.00
2023-04-14T17:53:43.061Z,6.97
2023-04-14T17:56:12.756Z,6.94
2023-04-14T17:58:42.898Z,6.89
2023-04-14T18:01:11.796Z,6.85
2023-04-14T18:03:43.809Z,6.84
2023-04-14T18:06:12.445Z,6.87
2023-04-14T18:08:42.373Z,6.84
2023-04-14T18:11:12.099Z,6.85
2023-04-14T18:13:41.637Z,6.88
2023-04-14T18:16:10.704Z,6.86
2023-04-14T18:18:39.425Z,6.84
2023-04-14T18:21:09.536Z,6.84
2023-04-14T18:23:38.366Z,6.83
2023-04-14T18:28:39.064Z,6.81
2023-04-14T18:31:08.760Z,6.84
2023-04-14T18:33:37.172Z,6.84
2023-04-14T18:36:05.556Z,6.81
2023-04-14T18:38:35.367Z,6.80
2023-04-14T18:41:04.815Z,6.80
2023-04-14T18:43:34.003Z,6.79
2023-04-14T18:46:02.595Z,6.81
2023-04-14T18:48:31.747Z,6.82
2023-04-14T18:51:04.343Z,6.84
2023-04-14T18:53:32.876Z,6.87
2023-04-14T18:56:02.839Z,6.88
2023-04-14T18:58:31.765Z,6.86
2023-04-14T19:01:00.271Z,6.86
2023-04-14T19:03:32.085Z,6.89
2023-04-14T19:06:00.581Z,6.93
2023-04-14T19:08:29.638Z,6.98
2023-04-14T19:10:59.322Z,7.02
2023-04-14T19:13:29.172Z,7.05
2023-04-14T19:16:11.535Z,7.07
2023-04-14T19:18:41.108Z,7.07
2023-04-14T19:21:09.674Z,7.07
2023-04-14T19:23:41.190Z,7.07
2023-04-14T19:26:11.455Z,7.08
2023-04-14T19:28:42.662Z,7.09
2023-04-14T19:31:12.538Z,7.11
2023-04-14T19:33:50.051Z,7.12
2023-04-14T19:36:19.326Z,7.14
2023-04-14T19:38:47.721Z,7.16
2023-04-14T19:41:16.272Z,7.16
2023-04-14T19:43:46.231Z,7.17
2023-04-14T19:46:15.132Z,7.17
2023-04-14T19:48:45.205Z,7.17
2023-04-14T19:51:13.640Z,7.17
2023-04-14T19:53:43.453Z,7.16
2023-04-14T19:56:12.783Z,7.17
2023-04-14T19:58:41.757Z,7.15
2023-04-14T20:01:11.754Z,7.15
2023-04-14T20:04:06.378Z,7.12
2023-04-14T20:06:30.630Z,7.11
2023-04-14T20:08:59.299Z,7.09
2023-04-14T20:11:28.227Z,7.11
2023-04-14T20:13:56.718Z,7.13
2023-04-14T20:16:26.669Z,7.15
2023-04-14T20:18:55.553Z,7.13
2023-04-14T20:21:24.159Z,7.13
2023-04-14T20:23:52.572Z,7.09
2023-04-14T20:26:21.562Z,6.96
2023-04-14T20:28:50.422Z,6.93
2023-04-14T20:31:18.887Z,6.96
2023-04-14T20:33:48.946Z,7.00
2023-04-14T20:36:17.371Z,7.02
2023-04-14T20:38:45.824Z,7.05
2023-04-14T20:41:14.215Z,7.05
2023-04-14T20:43:46.612Z,7.03
2023-04-14T20:46:15.616Z,7.02
2023-04-14T20:48:44.646Z,7.04
2023-04-14T20:51:14.683Z,7.06
2023-04-14T20:53:45.214Z,7.05
2023-04-14T20:56:13.616Z,7.03
2023-04-14T20:58:43.705Z,7.01
2023-04-14T21:01:12.223Z,7.00
2023-04-14T21:03:40.752Z,7.01
2023-04-14T21:06:09.596Z,7.02
2023-04-14T21:08:40.054Z,7.03
2023-04-14T21:11:16.719Z,7.03
2023-04-14T21:15:28.493Z,7.00
2023-04-14T21:16:35.035Z,6.94
2023-04-14T21:19:04.399Z,6.88
2023-04-14T21:21:33.358Z,6.84
2023-04-14T21:24:03.369Z,6.82
2023-04-14T21:26:31.994Z,6.78
2023-04-14T21:29:01.006Z,6.73
2023-04-14T21:31:29.624Z,6.66
2023-04-14T21:33:58.040Z,6.63
2023-04-14T21:36:27.414Z,6.59
2023-04-14T21:38:56.528Z,6.58
2023-04-14T21:41:26.433Z,6.53
2023-04-14T21:43:54.803Z,6.42
2023-04-14T21:46:23.427Z,6.39
2023-04-14T21:48:51.936Z,6.39
2023-04-14T21:51:20.297Z,6.39
2023-04-14T21:53:48.771Z,6.40
2023-04-14T21:56:17.583Z,6.39
2023-04-14T21:58:47.330Z,6.39
2023-04-14T22:01:15.859Z,6.42
2023-04-14T22:03:45.109Z,6.42
2023-04-14T22:06:14.352Z,6.43
2023-04-14T22:08:44.280Z,6.44
2023-04-14T22:11:12.793Z,6.43
2023-04-14T22:13:41.255Z,6.44
2023-04-14T22:16:11.510Z,6.43
2023-04-14T22:18:40.681Z,6.44
2023-04-14T22:21:12.090Z,6.40
2023-04-14T22:23:40.611Z,6.36
2023-04-14T22:26:09.073Z,6.34
2023-04-14T22:28:37.627Z,6.29
2023-04-14T22:31:06.536Z,6.26
2023-04-14T22:33:36.428Z,6.21
2023-04-14T22:36:07.012Z,6.21
2023-04-14T22:38:35.485Z,6.20
2023-04-14T22:41:03.876Z,6.20
2023-04-14T22:43:32.326Z,6.19
2023-04-14T22:46:00.797Z,6.23
2023-04-14T22:48:29.187Z,6.26
2023-04-14T22:50:58.941Z,6.27
2023-04-14T22:53:27.408Z,6.27
2023-04-14T22:55:55.791Z,6.29
2023-04-14T22:58:24.186Z,6.29
2023-04-14T23:00:52.588Z,6.30
2023-04-14T23:03:21.363Z,6.34
2023-04-14T23:05:51.821Z,6.36
2023-04-14T23:08:21.586Z,6.36
2023-04-14T23:10:50.079Z,6.38
2023-04-14T23:13:18.461Z,6.38
2023-04-14T23:15:46.892Z,6.38
2023-04-14T23:18:21.361Z,6.37
2023-04-14T23:20:49.710Z,6.37
2023-04-14T23:23:18.053Z,6.37
2023-04-14T23:25:47.880Z,6.35
2023-04-14T23:28:16.398Z,6.33
2023-04-14T23:30:45.054Z,6.31
2023-04-14T23:33:13.757Z,6.35
2023-04-14T23:35:42.391Z,6.38
2023-04-14T23:38:10.733Z,6.43
2023-04-14T23:40:39.144Z,6.45
2023-04-14T23:43:08.922Z,6.45
2023-04-14T23:45:37.881Z,6.50
2023-04-14T23:48:06.845Z,6.53
2023-04-14T23:50:58.893Z,6.54
2023-04-14T23:53:23.931Z,6.56
2023-04-14T23:55:52.932Z,6.56
2023-04-14T23:58:26.861Z,6.57
